createdAt,value
2017-08-23T00:01:49.855Z,34.80
2017-08-23T00:04:17.385Z,34.98
2017-08-23T00:06:44.897Z,35.12
2017-08-23T00:09:12.448Z,34.93
2017-08-23T00:11:39.964Z,34.90
2017-08-23T00:14:07.481Z,35.05
2017-08-23T00:16:35.016Z,34.71
2017-08-23T00:19:02.521Z,34.98
2017-08-23T00:21:30.081Z,34.71
2017-08-23T00:23:57.591Z,35.18
2017-08-23T00:26:25.133Z,34.92
2017-08-23T00:28:52.715Z,34.91
2017-08-23T00:31:20.276Z,34.92
2017-08-23T00:33:47.790Z,34.74
2017-08-23T00:36:15.357Z,34.92
2017-08-23T00:38:42.921Z,34.84
2017-08-23T00:41:10.420Z,35.03
2017-08-23T00:43:37.917Z,34.89
2017-08-23T00:46:05.450Z,35.05
2017-08-23T00:48:32.945Z,34.69
2017-08-23T00:51:00.476Z,34.84
2017-08-23T00:53:27.973Z,34.92
2017-08-23T00:55:55.516Z,34.95
2017-08-23T00:58:23.065Z,34.82
2017-08-23T01:00:50.581Z,34.83
2017-08-23T01:03:18.129Z,34.14
2017-08-23T01:05:45.636Z,33.73
2017-08-23T01:08:13.132Z,33.57
2017-08-23T01:10:40.673Z,33.61
2017-08-23T01:13:08.174Z,33.74
2017-08-23T01:15:35.717Z,33.83
2017-08-23T01:18:03.213Z,34.09
2017-08-23T01:20:30.796Z,34.13
2017-08-23T01:22:58.302Z,34.10
2017-08-23T01:25:25.811Z,34.20
2017-08-23T01:27:53.395Z,34.18
2017-08-23T01:30:20.895Z,34.13
2017-08-23T01:32:48.496Z,34.28
2017-08-23T01:35:16.045Z,34.37
2017-08-23T01:37:43.543Z,34.28
2017-08-23T01:40:11.043Z,34.35
2017-08-23T01:42:38.603Z,34.33
2017-08-23T01:45:06.133Z,34.31
2017-08-23T01:47:33.626Z,34.41
2017-08-23T01:50:01.169Z,34.52
2017-08-23T01:52:28.669Z,34.33
2017-08-23T01:54:56.244Z,34.46
2017-08-23T01:57:23.845Z,34.42
2017-08-23T01:59:51.395Z,34.57
2017-08-23T02:02:18.959Z,34.37
2017-08-23T02:04:46.458Z,34.52
2017-08-23T02:07:13.958Z,34.72
2017-08-23T02:09:41.505Z,34.72
2017-08-23T02:12:09.052Z,34.76
2017-08-23T02:14:36.569Z,34.54
2017-08-23T02:17:04.072Z,34.54
2017-08-23T02:19:31.630Z,34.69
2017-08-23T02:21:59.130Z,34.72
2017-08-23T02:24:26.655Z,34.62
2017-08-23T02:26:54.194Z,34.65
2017-08-23T02:29:21.689Z,34.63
2017-08-23T02:31:49.269Z,34.69
2017-08-23T02:34:16.814Z,34.52
2017-08-23T02:36:44.317Z,34.40
2017-08-23T02:39:11.876Z,34.66
2017-08-23T02:41:39.389Z,34.47
2017-08-23T02:44:06.894Z,34.66
2017-08-23T02:46:34.434Z,34.63
2017-08-23T02:49:01.942Z,34.56
2017-08-23T02:51:29.481Z,34.67
2017-08-23T02:53:56.993Z,34.92
2017-08-23T02:56:24.599Z,34.85
2017-08-23T02:58:52.097Z,34.71
2017-08-23T03:01:19.621Z,34.69
2017-08-23T03:03:47.177Z,34.81
2017-08-23T03:06:14.697Z,34.84
2017-08-23T03:08:42.235Z,34.80
2017-08-23T03:11:09.782Z,34.81
2017-08-23T03:13:37.297Z,34.85
2017-08-23T03:16:04.805Z,35.12
2017-08-23T03:18:32.410Z,35.17
2017-08-23T03:20:59.921Z,35.18
2017-08-23T03:23:27.417Z,35.09
2017-08-23T03:25:54.983Z,35.20
2017-08-23T03:28:22.671Z,35.11
2017-08-23T03:30:50.182Z,35.23
2017-08-23T03:33:17.827Z,35.23
2017-08-23T03:35:45.441Z,35.11
2017-08-23T03:38:13.034Z,35.09
2017-08-23T03:40:40.541Z,35.04
2017-08-23T03:43:08.114Z,35.19
2017-08-23T03:45:35.615Z,35.21
2017-08-23T03:48:03.153Z,35.14
2017-08-23T03:50:30.658Z,35.24
2017-08-23T03:52:58.217Z,35.40
2017-08-23T03:55:25.752Z,35.28
2017-08-23T03:57:53.287Z,35.28
2017-08-23T04:00:20.818Z,35.18
2017-08-23T04:02:48.321Z,35.33
2017-08-23T04:05:15.914Z,35.10
2017-08-23T04:07:43.444Z,35.20
2017-08-23T04:10:11.006Z,34.94
2017-08-23T04:12:38.509Z,35.09
2017-08-23T04:15:06.049Z,35.00
2017-08-23T04:17:33.602Z,35.12
2017-08-23T04:20:01.176Z,34.98
2017-08-23T04:22:28.761Z,34.83
2017-08-23T04:24:56.277Z,35.06
2017-08-23T04:27:23.906Z,35.28
2017-08-23T04:29:51.492Z,35.52
2017-08-23T04:32:19.072Z,35.49
2017-08-23T04:34:46.581Z,35.58
2017-08-23T04:37:14.121Z,35.60
2017-08-23T04:39:41.666Z,35.82
2017-08-23T04:42:09.219Z,35.66
2017-08-23T04:44:36.740Z,36.27
2017-08-23T04:47:04.240Z,35.91
2017-08-23T04:49:31.800Z,36.13
2017-08-23T04:51:59.338Z,36.02
2017-08-23T04:54:26.846Z,36.20
2017-08-23T04:56:54.415Z,36.26
2017-08-23T04:59:21.953Z,36.46
2017-08-23T05:01:49.482Z,36.36
2017-08-23T05:04:17.245Z,36.35
2017-08-23T05:06:44.745Z,36.32
2017-08-23T05:09:12.244Z,36.41
2017-08-23T05:11:39.774Z,36.40
2017-08-23T05:14:07.271Z,36.43
2017-08-23T05:16:34.817Z,36.33
2017-08-23T05:19:02.344Z,36.25
2017-08-23T05:21:29.849Z,36.24
2017-08-23T05:23:57.436Z,36.19
2017-08-23T05:26:25.025Z,36.44
2017-08-23T05:28:52.613Z,36.36
2017-08-23T05:31:20.321Z,36.20
2017-08-23T05:33:47.881Z,36.12
2017-08-23T05:36:15.558Z,36.11
2017-08-23T05:38:43.160Z,36.19
2017-08-23T05:41:10.834Z,35.95
2017-08-23T05:43:39.498Z,36.24
2017-08-23T05:46:25.930Z,35.86
2017-08-23T05:49:01.627Z,35.87
2017-08-23T05:51:29.580Z,36.01
2017-08-23T05:53:57.149Z,35.90
2017-08-23T05:56:25.210Z,35.89
2017-08-23T05:58:53.077Z,36.05
2017-08-23T06:01:29.033Z,35.91
2017-08-23T06:03:57.075Z,35.73
2017-08-23T06:18:43.923Z,35.56
2017-08-23T06:21:12.559Z,35.44
2017-08-23T06:23:40.173Z,35.30
2017-08-23T06:26:11.820Z,35.35
2017-08-23T06:28:41.197Z,35.48
2017-08-23T06:31:20.793Z,35.68
2017-08-23T06:33:50.696Z,35.16
2017-08-23T06:36:20.285Z,35.52
2017-08-23T06:38:48.495Z,35.43
2017-08-23T06:41:16.588Z,35.37
2017-08-23T06:43:44.405Z,35.42
2017-08-23T06:49:33.347Z,35.36
2017-08-23T06:55:04.135Z,35.33
2017-08-23T06:57:34.155Z,35.17
2017-08-23T07:00:01.755Z,35.33
2017-08-23T07:05:28.998Z,35.12
2017-08-23T07:07:59.897Z,35.20
2017-08-23T07:10:30.972Z,35.37
2017-08-23T07:12:58.920Z,35.32
2017-08-23T07:15:27.368Z,35.20
2017-08-23T07:17:55.197Z,35.19
2017-08-23T07:20:23.154Z,35.24
2017-08-23T07:22:50.984Z,35.15
2017-08-23T07:25:18.869Z,35.27
2017-08-23T07:27:46.526Z,35.14
2017-08-23T07:30:14.267Z,35.11
2017-08-23T07:32:41.881Z,34.98
2017-08-23T07:35:09.637Z,34.97
2017-08-23T07:37:37.274Z,35.10
2017-08-23T07:40:06.573Z,35.02
2017-08-23T07:42:34.274Z,34.88
2017-08-23T07:45:44.290Z,34.87
2017-08-23T07:51:13.115Z,34.81
2017-08-23T07:53:52.759Z,34.98
2017-08-23T07:56:21.144Z,35.02
2017-08-23T07:58:49.035Z,34.92
2017-08-23T08:01:17.343Z,34.95
2017-08-23T08:03:45.192Z,34.89
2017-08-23T08:06:14.442Z,34.88
2017-08-23T08:08:42.363Z,34.93
2017-08-23T08:11:11.054Z,34.90
2017-08-23T08:13:38.780Z,34.89
2017-08-23T08:16:07.277Z,35.05
2017-08-23T08:18:34.958Z,35.09
2017-08-23T08:21:02.596Z,34.93
2017-08-23T08:23:30.234Z,34.96
2017-08-23T08:25:57.910Z,34.87
2017-08-23T08:28:39.349Z,34.86
2017-08-23T08:31:07.101Z,34.79
2017-08-23T08:33:35.438Z,34.65
2017-08-23T08:36:04.387Z,34.66
2017-08-23T08:38:32.368Z,34.56
2017-08-23T08:41:04.386Z,34.52
2017-08-23T08:46:46.448Z,34.46
2017-08-23T08:49:56.118Z,34.46
2017-08-23T08:52:33.235Z,34.41
2017-08-23T08:55:13.964Z,34.37
2017-08-23T08:57:48.114Z,34.42
2017-08-23T09:00:17.853Z,34.35
2017-08-23T09:05:45.646Z,34.21
2017-08-23T09:08:15.578Z,34.19
2017-08-23T09:14:00.591Z,34.20
2017-08-23T09:16:32.306Z,34.11
2017-08-23T09:19:23.456Z,34.17
2017-08-23T10:06:43.780Z,33.40
2017-08-23T10:09:11.497Z,33.35
2017-08-23T10:11:39.199Z,33.31
2017-08-23T10:14:07.740Z,33.28
2017-08-23T10:16:37.964Z,33.34
2017-08-23T10:19:05.939Z,33.35
2017-08-23T10:21:33.780Z,33.30
2017-08-23T10:24:01.629Z,33.29
2017-08-23T10:26:29.176Z,33.16
2017-08-23T10:28:56.821Z,33.11
2017-08-23T10:31:24.411Z,33.04
2017-08-23T10:33:52.168Z,33.02
2017-08-23T10:36:19.915Z,33.05
2017-08-23T10:38:47.518Z,33.00
2017-08-23T10:41:18.204Z,33.01
2017-08-23T10:43:45.838Z,32.97
2017-08-23T10:46:23.469Z,33.00
2017-08-23T11:05:34.666Z,32.90
2017-08-23T11:08:26.753Z,32.93
2017-08-23T11:11:20.719Z,32.88
2017-08-23T11:13:54.810Z,32.81
2017-08-23T11:16:25.457Z,32.83
2017-08-23T11:18:53.159Z,32.80
2017-08-23T11:21:23.891Z,32.77
2017-08-23T11:23:51.907Z,32.81
2017-08-23T11:26:19.577Z,32.72
2017-08-23T11:28:49.243Z,32.74
2017-08-23T11:31:17.006Z,32.77
2017-08-23T11:33:44.567Z,32.76
2017-08-23T11:36:12.254Z,32.73
2017-08-23T11:38:39.837Z,32.62
2017-08-23T11:41:07.497Z,32.74
2017-08-23T11:43:35.775Z,32.71
2017-08-23T11:49:30.569Z,32.68
2017-08-23T12:08:38.287Z,32.66
2017-08-23T12:11:14.351Z,32.69
2017-08-23T12:40:27.964Z,32.56
2017-08-23T12:45:32.499Z,32.62
2017-08-23T12:48:02.807Z,32.48
2017-08-23T12:50:31.654Z,32.54
2017-08-23T12:53:01.329Z,32.42
2017-08-23T12:55:29.666Z,32.38
2017-08-23T13:14:39.514Z,31.98
2017-08-23T13:17:07.182Z,31.99
2017-08-23T13:19:34.874Z,32.04
2017-08-23T13:22:02.758Z,31.88
2017-08-23T13:24:30.486Z,31.83
2017-08-23T13:26:58.419Z,31.91
2017-08-23T13:29:26.474Z,31.80
2017-08-23T13:34:38.976Z,31.71
2017-08-23T13:37:06.622Z,31.71
2017-08-23T13:40:06.267Z,31.67
2017-08-23T13:43:04.963Z,31.68
2017-08-23T13:46:05.193Z,31.58
2017-08-23T13:49:03.146Z,31.49
2017-08-23T13:52:02.661Z,31.37
2017-08-23T13:54:38.104Z,31.39
2017-08-23T13:57:05.970Z,31.34
2017-08-23T13:59:33.857Z,31.29
2017-08-23T14:02:06.428Z,31.34
2017-08-23T14:04:34.485Z,31.19
2017-08-23T14:07:02.380Z,31.24
2017-08-23T14:09:32.085Z,31.20
2017-08-23T14:12:00.034Z,31.16
2017-08-23T14:14:29.621Z,31.06
2017-08-23T14:16:58.548Z,30.89
2017-08-23T14:19:26.326Z,30.96
2017-08-23T14:21:54.993Z,30.80
2017-08-23T14:24:25.911Z,30.94
2017-08-23T14:26:54.643Z,30.71
2017-08-23T14:29:36.104Z,30.57
2017-08-23T14:32:09.174Z,30.81
2017-08-23T14:37:37.308Z,30.48
2017-08-23T14:40:07.838Z,30.62
2017-08-23T14:42:38.464Z,30.58
2017-08-23T14:45:12.662Z,30.42
2017-08-23T14:47:46.868Z,30.50
2017-08-23T14:50:16.055Z,30.44
2017-08-23T14:52:45.157Z,30.33
2017-08-23T14:55:13.786Z,30.36
2017-08-23T14:57:44.462Z,30.30
2017-08-23T15:00:12.124Z,30.24
2017-08-23T15:02:40.015Z,30.33
2017-08-23T15:05:08.645Z,30.04
2017-08-23T15:07:37.005Z,30.04
2017-08-23T15:10:05.042Z,30.00
2017-08-23T15:12:33.751Z,30.02
2017-08-23T15:15:01.400Z,30.08
2017-08-23T15:17:29.055Z,29.95
2017-08-23T15:19:56.849Z,29.89
2017-08-23T15:22:25.201Z,29.84
2017-08-23T15:24:52.788Z,30.05
2017-08-23T15:27:20.354Z,30.09
2017-08-23T15:29:48.011Z,30.00
2017-08-23T15:32:15.900Z,29.93
2017-08-23T15:34:43.562Z,29.86
2017-08-23T15:37:11.264Z,29.99
2017-08-23T15:39:38.796Z,30.05
2017-08-23T15:42:06.396Z,29.96
2017-08-23T15:44:34.000Z,29.97
2017-08-23T15:47:01.676Z,30.00
2017-08-23T15:49:30.656Z,29.92
2017-08-23T15:51:59.217Z,29.80
2017-08-23T15:54:27.198Z,29.82
2017-08-23T15:56:55.171Z,29.92
2017-08-23T15:59:22.802Z,29.86
2017-08-23T16:01:50.380Z,29.88
2017-08-23T16:04:17.994Z,29.90
2017-08-23T16:06:45.559Z,29.77
2017-08-23T16:09:13.069Z,29.84
2017-08-23T16:11:40.688Z,29.83
2017-08-23T16:14:08.213Z,29.82
2017-08-23T16:16:35.858Z,29.84
2017-08-23T16:19:03.463Z,29.87
2017-08-23T16:21:30.966Z,29.83
2017-08-23T16:23:58.578Z,29.87
2017-08-23T16:26:26.122Z,29.86
2017-08-23T16:28:53.781Z,29.89
2017-08-23T16:31:21.333Z,29.93
2017-08-23T16:33:48.833Z,29.86
2017-08-23T16:36:16.384Z,29.86
2017-08-23T16:38:43.910Z,29.97
2017-08-23T16:41:11.469Z,29.99
2017-08-23T16:43:38.986Z,29.95
2017-08-23T16:46:06.509Z,29.92
2017-08-23T16:48:34.054Z,29.97
2017-08-23T16:51:01.586Z,30.05
2017-08-23T16:53:29.142Z,30.02
2017-08-23T16:55:56.653Z,30.01
2017-08-23T16:58:24.193Z,29.99
2017-08-23T17:00:51.757Z,30.05
2017-08-23T17:03:19.365Z,29.98
2017-08-23T17:05:46.878Z,29.99
2017-08-23T17:08:14.403Z,30.28
2017-08-23T17:10:41.988Z,30.25
2017-08-23T17:13:09.493Z,30.17
2017-08-23T17:15:37.007Z,30.24
2017-08-23T17:18:04.565Z,30.24
2017-08-23T17:20:32.068Z,30.18
2017-08-23T17:22:59.651Z,30.38
2017-08-23T17:25:27.230Z,30.45
2017-08-23T17:27:54.802Z,30.50
2017-08-23T17:30:22.393Z,30.59
2017-08-23T17:32:49.957Z,30.70
2017-08-23T17:35:17.531Z,30.76
2017-08-23T17:37:45.052Z,30.79
2017-08-23T17:40:12.591Z,30.87
2017-08-23T17:42:40.146Z,30.87
2017-08-23T17:45:07.658Z,30.84
2017-08-23T17:47:35.209Z,30.81
2017-08-23T17:50:02.718Z,30.99
2017-08-23T17:52:30.345Z,30.87
2017-08-23T17:54:57.849Z,30.76
2017-08-23T17:57:25.401Z,30.71
2017-08-23T17:59:53.020Z,30.85
2017-08-23T18:02:20.561Z,30.92
2017-08-23T18:04:48.119Z,31.06
2017-08-23T18:07:15.668Z,30.99
2017-08-23T18:09:43.193Z,31.15
2017-08-23T18:12:10.746Z,31.19
2017-08-23T18:14:38.260Z,31.25
2017-08-23T18:17:05.814Z,31.14
2017-08-23T18:19:33.329Z,31.07
2017-08-23T18:22:00.836Z,31.19
2017-08-23T18:24:28.423Z,31.10
2017-08-23T18:26:55.954Z,31.28
2017-08-23T18:29:23.501Z,31.20
2017-08-23T18:31:51.116Z,31.55
2017-08-23T18:34:18.645Z,31.26
2017-08-23T18:36:46.185Z,31.40
2017-08-23T18:39:13.725Z,31.35
2017-08-23T18:41:41.229Z,31.37
2017-08-23T18:44:08.779Z,31.87
2017-08-23T18:46:36.282Z,31.81
2017-08-23T18:49:03.972Z,31.44
2017-08-23T18:51:31.596Z,31.38
2017-08-23T18:53:59.118Z,31.98
2017-08-23T18:56:26.629Z,31.46
2017-08-23T18:58:54.180Z,31.62
2017-08-23T19:01:21.773Z,31.79
2017-08-23T19:03:49.339Z,31.86
2017-08-23T19:06:16.894Z,31.46
2017-08-23T19:08:44.397Z,31.75
2017-08-23T19:11:11.922Z,31.55
2017-08-23T19:13:39.488Z,32.09
2017-08-23T19:16:07.029Z,31.51
2017-08-23T19:18:34.534Z,31.57
2017-08-23T19:21:02.098Z,31.99
2017-08-23T19:23:29.609Z,32.43
2017-08-23T19:25:57.198Z,32.31
2017-08-23T19:28:24.702Z,32.29
2017-08-23T19:30:52.259Z,31.78
2017-08-23T19:33:19.822Z,32.21
2017-08-23T19:35:47.376Z,31.24
2017-08-23T19:38:14.913Z,31.96
2017-08-23T19:40:42.497Z,31.78
2017-08-23T19:43:10.038Z,31.72
2017-08-23T19:45:37.588Z,31.74
2017-08-23T19:48:05.177Z,31.59
2017-08-23T19:50:32.691Z,31.82
2017-08-23T19:53:00.217Z,31.88
2017-08-23T19:55:27.760Z,32.18
2017-08-23T19:57:55.346Z,31.86
2017-08-23T20:00:22.877Z,31.90
2017-08-23T20:02:50.418Z,32.12
2017-08-23T20:05:17.965Z,32.20
2017-08-23T20:07:45.475Z,32.10
2017-08-23T20:10:13.097Z,32.23
2017-08-23T20:12:40.638Z,32.21
2017-08-23T20:15:08.141Z,32.38
2017-08-23T20:17:35.717Z,32.38
2017-08-23T20:20:03.247Z,32.50
2017-08-23T20:22:30.762Z,32.45
2017-08-23T20:24:58.338Z,32.34
2017-08-23T20:27:26.045Z,32.56
2017-08-23T20:29:53.675Z,32.63
2017-08-23T20:32:21.254Z,32.56
2017-08-23T20:34:48.797Z,32.59
2017-08-23T20:37:16.365Z,32.56
2017-08-23T20:39:43.901Z,32.62
2017-08-23T20:42:11.445Z,32.57
2017-08-23T20:44:38.995Z,32.87
2017-08-23T20:47:06.515Z,32.80
2017-08-23T20:49:34.074Z,32.86
2017-08-23T20:52:01.608Z,32.96
2017-08-23T20:54:29.165Z,32.93
2017-08-23T20:56:56.812Z,33.07
2017-08-23T20:59:25.368Z,33.05
2017-08-23T21:01:53.029Z,33.06
2017-08-23T21:04:20.699Z,33.03
2017-08-23T21:06:48.209Z,33.10
2017-08-23T21:09:15.930Z,33.00
2017-08-23T21:11:43.479Z,33.14
2017-08-23T21:14:11.058Z,33.10
2017-08-23T21:16:38.632Z,33.10
2017-08-23T21:19:06.233Z,33.14
2017-08-23T21:21:33.826Z,33.11
2017-08-23T21:24:01.754Z,33.23
2017-08-23T21:26:29.357Z,33.20
2017-08-23T21:28:56.938Z,33.26
2017-08-23T21:31:24.522Z,33.18
2017-08-23T21:33:52.165Z,33.40
2017-08-23T21:36:19.767Z,33.24
2017-08-23T21:38:47.443Z,33.35
2017-08-23T21:41:14.941Z,33.24
2017-08-23T21:43:42.493Z,33.36
2017-08-23T21:46:10.110Z,33.43
2017-08-23T21:48:37.650Z,33.34
2017-08-23T21:51:05.240Z,33.36
2017-08-23T21:53:32.761Z,33.47
2017-08-23T21:56:00.338Z,33.33
2017-08-23T21:58:27.937Z,33.42
2017-08-23T22:00:55.533Z,33.39
2017-08-23T22:03:23.201Z,33.46
2017-08-23T22:05:50.782Z,33.34
2017-08-23T22:08:18.486Z,33.45
2017-08-23T22:10:46.491Z,33.43
2017-08-23T22:13:14.019Z,33.51
2017-08-23T22:15:41.530Z,33.55
2017-08-23T22:18:09.109Z,33.56
2017-08-23T22:20:36.651Z,33.48
2017-08-23T22:23:04.157Z,33.53
2017-08-23T22:25:31.790Z,33.63
2017-08-23T22:27:59.297Z,33.58
2017-08-23T22:30:26.860Z,33.59
2017-08-23T22:32:54.421Z,33.67
2017-08-23T22:35:21.965Z,33.70
2017-08-23T22:37:49.464Z,33.66
2017-08-23T22:40:16.997Z,33.74
2017-08-23T22:42:44.574Z,33.88
2017-08-23T22:45:12.081Z,33.66
2017-08-23T22:47:39.645Z,33.76
2017-08-23T22:50:07.207Z,33.73
2017-08-23T22:52:34.797Z,33.79
2017-08-23T22:55:02.303Z,33.72
2017-08-23T22:57:29.809Z,33.75
2017-08-23T22:59:57.354Z,33.80
2017-08-23T23:02:25.007Z,33.75
2017-08-23T23:04:52.567Z,33.90
2017-08-23T23:07:20.107Z,33.72
2017-08-23T23:09:47.652Z,33.89
2017-08-23T23:12:15.300Z,33.86
2017-08-23T23:14:42.849Z,33.91
2017-08-23T23:17:10.425Z,33.80
2017-08-23T23:19:37.963Z,33.89
2017-08-23T23:22:05.482Z,33.70
2017-08-23T23:24:33.016Z,34.07
2017-08-23T23:27:00.575Z,33.98
2017-08-23T23:29:28.130Z,33.83
2017-08-23T23:31:55.651Z,33.94
2017-08-23T23:34:23.580Z,33.89
2017-08-23T23:36:51.146Z,33.89
2017-08-23T23:39:18.684Z,33.84
2017-08-23T23:41:46.206Z,33.97
2017-08-23T23:44:13.765Z,33.99
2017-08-23T23:46:41.315Z,33.89
2017-08-23T23:49:08.855Z,33.86
2017-08-23T23:51:36.493Z,33.94
2017-08-23T23:54:04.027Z,33.99
2017-08-23T23:56:31.573Z,33.95
2017-08-23T23:58:59.125Z,33.99
